< < Back
Terminal Aerodrome Forecast


Current Version              Previous Versions:   1  2  3  4  5  6  7  8  9  

Terminal Aerodrome Forecast

172
FTUS42 KGSP 052104 AAA
TAFCLT
TAF AMD
KCLT 052104Z 0521/0618 33011G17KT P6SM -SHRA SCT050 BKN080
     FM060200 30006KT P6SM VCSH OVC045
      TEMPO 0602/0606 -SHRA
     FM061300 33010G17KT P6SM FEW045 BKN060=



Latest METAR

679
SAUS70 KWBC 060700 RRK
MTRCLT
METAR KCLT 060652Z 27006KT 10SM OVC044 09/07 A2973 RMK AO2 RAE35 SLP066
P0000 T00890072


USA.gov is the U.S. government's official web portal to all federal, state and local government web resources and services.